createdAt,value
2023-02-22T00:02:08.828Z,72.25
2023-02-22T00:04:35.507Z,58.85
2023-02-22T00:07:02.199Z,61.25
2023-02-22T00:09:30.216Z,70.40
2023-02-22T00:11:58.646Z,66.68
2023-02-22T00:14:28.411Z,72.00
2023-02-22T00:16:59.320Z,69.90
2023-02-22T00:19:27.896Z,71.57
2023-02-22T00:21:54.580Z,66.90
2023-02-22T00:24:24.109Z,66.57
2023-02-22T00:26:58.130Z,62.63
2023-02-22T00:29:26.062Z,63.72
2023-02-22T00:31:52.982Z,64.43
2023-02-22T00:34:19.737Z,67.35
2023-02-22T00:36:50.131Z,69.57
2023-02-22T00:39:17.013Z,64.75
2023-02-22T00:41:43.944Z,67.95
2023-02-22T00:44:10.966Z,70.97
2023-02-22T00:46:39.198Z,62.05
2023-02-22T00:49:06.364Z,62.92
2023-02-22T00:51:33.849Z,64.38
2023-02-22T00:54:00.874Z,75.43
2023-02-22T00:56:27.716Z,62.92
2023-02-22T00:58:54.819Z,65.05
2023-02-22T01:01:22.284Z,73.05
2023-02-22T01:03:48.998Z,69.70
2023-02-22T01:06:16.501Z,65.28
2023-02-22T01:08:47.177Z,65.10
2023-02-22T01:11:16.399Z,64.78
2023-02-22T01:13:45.216Z,57.53
2023-02-22T01:16:12.151Z,61.97
2023-02-22T01:18:38.874Z,60.17
2023-02-22T01:21:06.458Z,62.10
2023-02-22T01:23:33.419Z,59.70
2023-02-22T01:26:00.151Z,59.53
2023-02-22T01:28:29.225Z,67.05
2023-02-22T01:30:56.157Z,63.28
2023-02-22T01:33:24.267Z,65.85
2023-02-22T01:35:52.529Z,64.90
2023-02-22T01:38:19.284Z,64.97
2023-02-22T01:40:50.906Z,58.25
2023-02-22T01:43:32.195Z,67.97
2023-02-22T01:46:03.214Z,61.08
2023-02-22T01:48:47.698Z,61.13
2023-02-22T01:51:31.456Z,59.08
2023-02-22T01:54:16.056Z,64.00
2023-02-22T01:57:00.791Z,61.17
2023-02-22T01:59:33.090Z,58.13
2023-02-22T02:02:00.373Z,66.22
2023-02-22T02:04:27.844Z,58.70
2023-02-22T02:06:57.489Z,59.65
2023-02-22T02:10:00.524Z,64.97
2023-02-22T02:12:29.603Z,61.55
2023-02-22T02:15:16.193Z,58.33
2023-02-22T02:17:43.491Z,57.83
2023-02-22T02:20:14.637Z,58.22
2023-02-22T02:22:47.025Z,57.03
2023-02-22T02:29:25.794Z,51.20
2023-02-22T02:32:22.776Z,56.47
2023-02-22T02:35:00.142Z,53.72
2023-02-22T02:38:07.830Z,58.47
2023-02-22T02:40:41.723Z,59.75
2023-02-22T02:43:32.241Z,101.05
2023-02-22T02:46:24.614Z,78.15
2023-02-22T02:48:58.692Z,71.95
2023-02-22T02:51:30.209Z,71.43
2023-02-22T02:54:00.512Z,200.73
2023-02-22T02:59:29.474Z,69.80
2023-02-22T03:02:13.216Z,82.90
2023-02-22T03:05:07.179Z,121.63
2023-02-22T03:08:10.726Z,85.45
2023-02-22T03:11:01.591Z,100.90
2023-02-22T03:13:52.716Z,117.35
2023-02-22T03:16:20.257Z,129.25
2023-02-22T03:19:05.849Z,73.95
2023-02-22T03:22:18.631Z,127.10
2023-02-22T03:25:10.948Z,155.98
2023-02-22T03:27:55.597Z,114.30
2023-02-22T03:30:42.235Z,179.13
2023-02-22T03:33:15.194Z,165.88
2023-02-22T03:35:56.710Z,132.77
2023-02-22T03:38:26.878Z,135.05
2023-02-22T03:40:59.188Z,216.05
2023-02-22T03:43:30.942Z,187.77
2023-02-22T03:46:03.713Z,133.85
2023-02-22T03:48:54.220Z,125.25
2023-02-22T03:51:22.108Z,139.75
2023-02-22T03:53:53.594Z,181.75
2023-02-22T03:56:47.176Z,103.90
2023-02-22T03:59:14.610Z,185.48
2023-02-22T04:01:41.417Z,145.60
2023-02-22T04:04:08.192Z,144.90
2023-02-22T04:06:37.638Z,111.20
2023-02-22T04:09:04.372Z,92.00
2023-02-22T04:11:31.173Z,99.20
2023-02-22T04:13:58.320Z,162.70
2023-02-22T04:16:25.406Z,184.00
2023-02-22T04:18:52.174Z,152.43
2023-02-22T04:21:19.731Z,174.07
2023-02-22T04:23:50.077Z,227.43
2023-02-22T04:26:18.254Z,161.77
2023-02-22T04:28:50.674Z,162.05
2023-02-22T04:31:19.709Z,166.05
2023-02-22T04:33:46.814Z,156.35
2023-02-22T04:36:17.060Z,269.77
2023-02-22T04:38:45.257Z,129.35
2023-02-22T04:41:12.697Z,99.50
2023-02-22T04:43:40.045Z,142.15
2023-02-22T04:46:19.850Z,124.78
2023-02-22T04:48:46.540Z,125.32
2023-02-22T04:51:15.479Z,90.00
2023-02-22T04:53:53.794Z,75.40
2023-02-22T04:56:20.931Z,121.50
2023-02-22T04:58:47.767Z,151.70
2023-02-22T05:01:16.431Z,133.52
2023-02-22T05:03:44.154Z,201.65
2023-02-22T05:06:12.327Z,78.60
2023-02-22T05:08:38.986Z,205.48
2023-02-22T05:11:05.917Z,92.57
2023-02-22T05:13:32.623Z,210.07
2023-02-22T05:15:59.301Z,118.97
2023-02-22T05:18:26.023Z,189.25
2023-02-22T05:20:52.837Z,221.32
2023-02-22T05:23:19.460Z,215.77
2023-02-22T05:25:46.187Z,149.50
2023-02-22T05:28:14.848Z,120.78
2023-02-22T05:30:42.247Z,106.70
2023-02-22T05:33:09.806Z,66.03
2023-02-22T05:35:39.105Z,87.45
2023-02-22T05:38:06.410Z,47.83
2023-02-22T05:40:33.402Z,49.55
2023-02-22T05:43:02.140Z,97.13
2023-02-22T05:45:29.619Z,39.13
2023-02-22T05:47:56.938Z,52.83
2023-02-22T05:50:24.577Z,78.13
2023-02-22T05:52:52.030Z,50.78
2023-02-22T05:55:21.372Z,123.15
2023-02-22T05:57:48.563Z,97.20
2023-02-22T06:00:27.742Z,113.07
2023-02-22T06:02:58.994Z,142.73
2023-02-22T06:05:26.225Z,210.20
2023-02-22T06:07:53.773Z,163.88
2023-02-22T06:10:20.725Z,115.95
2023-02-22T06:12:48.757Z,188.50
2023-02-22T06:15:20.607Z,136.95
2023-02-22T06:17:48.044Z,115.18
2023-02-22T06:20:17.295Z,100.85
2023-02-22T06:22:45.508Z,176.65
2023-02-22T06:25:15.717Z,71.38
2023-02-22T06:27:42.450Z,66.85
2023-02-22T06:30:12.279Z,121.57
2023-02-22T06:32:39.925Z,129.40
2023-02-22T06:35:07.254Z,131.20
2023-02-22T06:37:33.950Z,116.43
2023-02-22T06:40:04.951Z,109.03
2023-02-22T06:42:32.120Z,123.43
2023-02-22T06:44:58.796Z,116.22
2023-02-22T06:47:25.454Z,156.30
2023-02-22T06:49:53.875Z,66.35
2023-02-22T06:52:20.990Z,130.63
2023-02-22T06:54:47.634Z,129.32
2023-02-22T06:57:14.313Z,167.88
2023-02-22T06:59:41.027Z,151.43
2023-02-22T07:02:07.816Z,115.75
2023-02-22T07:04:36.723Z,238.52
2023-02-22T07:07:03.829Z,314.08
2023-02-22T07:09:30.461Z,226.02
2023-02-22T07:11:57.096Z,227.15
2023-02-22T07:14:23.793Z,236.75
2023-02-22T07:16:50.458Z,153.38
2023-02-22T07:19:17.212Z,240.30
2023-02-22T07:21:43.903Z,195.38
2023-02-22T07:24:10.629Z,78.15
2023-02-22T07:26:41.924Z,103.82
2023-02-22T07:29:08.704Z,99.85
2023-02-22T07:31:36.667Z,173.88
2023-02-22T07:34:03.310Z,144.57
2023-02-22T07:36:29.966Z,101.07
2023-02-22T07:38:56.687Z,134.35
2023-02-22T07:41:23.326Z,85.82
2023-02-22T07:43:49.946Z,54.15
2023-02-22T07:46:16.670Z,197.80
2023-02-22T07:48:43.287Z,134.77
2023-02-22T07:51:10.064Z,50.42
2023-02-22T07:53:36.702Z,91.53
2023-02-22T07:56:05.614Z,193.45
2023-02-22T07:58:32.947Z,129.20
2023-02-22T08:01:01.980Z,198.95
2023-02-22T08:03:34.183Z,89.78
2023-02-22T08:06:02.907Z,108.40
2023-02-22T08:08:29.670Z,170.07
2023-02-22T08:10:56.638Z,98.82
2023-02-22T08:13:24.024Z,51.00
2023-02-22T08:15:53.575Z,51.08
2023-02-22T08:18:21.623Z,52.78
2023-02-22T08:20:50.215Z,35.40
2023-02-22T08:23:18.059Z,62.88
2023-02-22T08:25:44.812Z,46.35
2023-02-22T08:28:15.071Z,46.63
2023-02-22T08:30:43.655Z,59.15
2023-02-22T08:33:14.360Z,39.15
2023-02-22T08:35:41.623Z,51.35
2023-02-22T08:38:15.295Z,67.10
2023-02-22T08:40:41.978Z,45.50
2023-02-22T08:43:08.680Z,26.98
2023-02-22T08:45:35.401Z,36.22
2023-02-22T08:48:02.199Z,54.97
2023-02-22T08:50:35.633Z,25.02
2023-02-22T08:53:05.471Z,24.38
2023-02-22T08:55:37.030Z,32.83
2023-02-22T08:58:09.154Z,25.27
2023-02-22T09:00:38.554Z,24.17
2023-02-22T09:03:08.204Z,19.40
2023-02-22T09:05:34.876Z,24.95
2023-02-22T09:08:01.598Z,26.88
2023-02-22T09:10:31.682Z,19.45
2023-02-22T09:13:00.713Z,27.83
2023-02-22T09:15:27.927Z,18.35
2023-02-22T09:17:54.609Z,21.40
2023-02-22T09:20:22.663Z,23.95
2023-02-22T09:22:50.265Z,24.10
2023-02-22T09:25:20.352Z,24.02
2023-02-22T09:27:48.688Z,22.30
2023-02-22T09:30:23.801Z,21.45
2023-02-22T09:32:53.037Z,25.13
2023-02-22T09:35:26.745Z,17.92
2023-02-22T09:37:58.753Z,19.38
2023-02-22T09:40:31.787Z,16.05
2023-02-22T09:42:58.420Z,18.55
2023-02-22T09:45:38.570Z,19.23
2023-02-22T09:48:21.185Z,23.27
2023-02-22T09:50:53.742Z,23.00
2023-02-22T09:53:46.665Z,21.88
2023-02-22T09:56:18.007Z,18.80
2023-02-22T09:58:52.220Z,20.15
2023-02-22T10:01:39.463Z,18.77
2023-02-22T10:04:30.423Z,20.75
2023-02-22T10:07:06.653Z,18.48
2023-02-22T10:09:45.347Z,19.48
2023-02-22T10:12:30.840Z,18.88
2023-02-22T10:15:26.439Z,20.80
2023-02-22T10:18:05.082Z,18.60
2023-02-22T10:20:37.479Z,18.85
2023-02-22T10:23:22.730Z,16.90
2023-02-22T10:25:55.701Z,22.08
2023-02-22T10:28:30.894Z,16.25
2023-02-22T10:31:02.199Z,18.73
2023-02-22T10:33:52.617Z,16.77
2023-02-22T10:36:22.546Z,15.45
2023-02-22T10:39:00.279Z,21.60
2023-02-22T10:41:32.375Z,14.45
2023-02-22T10:43:59.536Z,17.85
2023-02-22T10:46:29.413Z,17.02
2023-02-22T10:49:02.578Z,14.10
2023-02-22T10:51:30.421Z,15.70
2023-02-22T10:54:26.833Z,16.00
2023-02-22T10:56:57.972Z,15.07
2023-02-22T10:59:35.101Z,14.75
2023-02-22T11:02:17.571Z,17.70
2023-02-22T11:04:53.536Z,15.05
2023-02-22T11:07:24.921Z,15.00
2023-02-22T11:09:54.511Z,12.32
2023-02-22T11:12:33.335Z,15.02
2023-02-22T11:15:24.225Z,17.13
2023-02-22T11:17:53.505Z,15.45
2023-02-22T11:20:25.490Z,15.23
2023-02-22T11:22:58.248Z,14.68
2023-02-22T11:25:30.101Z,12.05
2023-02-22T11:28:08.316Z,14.02
2023-02-22T11:30:36.127Z,12.48
2023-02-22T11:33:24.620Z,10.23
2023-02-22T11:35:55.320Z,12.52
2023-02-22T11:38:33.625Z,13.52
2023-02-22T11:41:21.892Z,12.63
2023-02-22T11:43:52.420Z,12.98
2023-02-22T11:46:19.143Z,11.52
2023-02-22T11:48:54.303Z,14.30
2023-02-22T11:51:47.321Z,18.17
2023-02-22T11:54:31.846Z,13.77
2023-02-22T11:57:21.939Z,13.55
2023-02-22T12:00:33.286Z,12.32
2023-02-22T12:03:29.065Z,13.88
2023-02-22T12:06:24.601Z,13.85
2023-02-22T12:08:53.446Z,11.13
2023-02-22T12:11:48.061Z,10.65
2023-02-22T12:14:48.336Z,12.50
2023-02-22T12:17:23.344Z,12.30
2023-02-22T12:20:15.246Z,10.38
2023-02-22T12:23:02.467Z,10.15
2023-02-22T12:25:33.738Z,10.73
2023-02-22T12:28:25.413Z,11.70
2023-02-22T12:31:30.245Z,10.00
2023-02-22T12:34:27.144Z,11.55
2023-02-22T12:37:23.695Z,12.02
2023-02-22T12:39:58.789Z,10.45
2023-02-22T12:42:51.855Z,9.55
2023-02-22T12:45:44.506Z,8.48
2023-02-22T12:48:29.191Z,10.10
2023-02-22T12:51:02.294Z,10.27
2023-02-22T12:53:34.712Z,8.55
2023-02-22T12:56:15.880Z,13.88
2023-02-22T12:58:54.157Z,10.68
2023-02-22T13:01:25.809Z,9.25
2023-02-22T13:03:55.677Z,9.65
2023-02-22T13:06:22.430Z,9.07
2023-02-22T13:08:58.233Z,8.95
2023-02-22T13:11:40.018Z,10.07
2023-02-22T13:14:12.649Z,9.13
2023-02-22T13:16:54.269Z,13.40
2023-02-22T13:19:32.873Z,12.13
2023-02-22T13:22:13.288Z,14.57
2023-02-22T13:24:46.190Z,13.27
2023-02-22T13:27:52.441Z,10.55
2023-02-22T13:30:30.680Z,9.10
2023-02-22T13:33:03.180Z,8.68
2023-02-22T13:35:59.626Z,9.07
2023-02-22T13:39:02.045Z,10.02
2023-02-22T13:41:51.448Z,12.32
2023-02-22T13:44:33.170Z,9.35
2023-02-22T13:47:22.956Z,10.10
2023-02-22T13:50:06.210Z,9.90
2023-02-22T13:52:37.898Z,8.57
2023-02-22T13:55:11.686Z,10.38
2023-02-22T13:57:41.846Z,10.20
2023-02-22T14:00:23.299Z,9.73
2023-02-22T14:03:30.018Z,8.57
2023-02-22T14:06:00.762Z,10.23
2023-02-22T14:08:31.475Z,10.38
2023-02-22T14:11:02.716Z,8.02
2023-02-22T14:13:33.093Z,10.10
2023-02-22T14:16:00.035Z,9.43
2023-02-22T14:18:28.314Z,8.27
2023-02-22T14:21:15.671Z,10.80
2023-02-22T14:23:44.652Z,11.00
2023-02-22T14:26:20.661Z,10.93
2023-02-22T14:29:07.736Z,8.88
2023-02-22T14:31:58.080Z,10.20
2023-02-22T14:34:57.987Z,8.82
2023-02-22T14:37:26.778Z,9.05
2023-02-22T14:40:06.207Z,10.35
2023-02-22T14:42:41.653Z,8.18
2023-02-22T14:45:12.653Z,10.52
2023-02-22T14:48:03.553Z,10.27
2023-02-22T14:50:40.428Z,8.50
2023-02-22T14:53:13.182Z,9.20
2023-02-22T14:56:17.645Z,10.00
2023-02-22T14:59:07.956Z,10.50
2023-02-22T15:01:50.822Z,9.00
2023-02-22T15:04:30.807Z,9.70
2023-02-22T15:07:00.332Z,9.02
2023-02-22T15:09:31.863Z,9.43
2023-02-22T15:12:02.810Z,9.38
2023-02-22T15:14:38.878Z,8.93
2023-02-22T15:17:24.884Z,10.55
2023-02-22T15:19:52.494Z,9.05
2023-02-22T15:22:23.539Z,10.75
2023-02-22T15:25:02.481Z,6.72
2023-02-22T15:27:29.667Z,9.68
2023-02-22T15:30:04.603Z,8.90
2023-02-22T15:32:37.770Z,9.50
2023-02-22T15:35:30.089Z,7.50
2023-02-22T15:38:06.740Z,9.60
2023-02-22T15:40:34.470Z,8.75
2023-02-22T15:43:04.435Z,9.63
2023-02-22T15:45:34.422Z,12.75
2023-02-22T15:48:01.978Z,11.32
2023-02-22T15:50:34.276Z,10.00
2023-02-22T15:53:08.095Z,10.63
2023-02-22T15:55:47.211Z,10.52
2023-02-22T15:58:22.312Z,11.07
2023-02-22T16:01:07.962Z,9.32
2023-02-22T16:03:47.174Z,10.40
2023-02-22T16:06:29.272Z,10.02
2023-02-22T16:08:58.710Z,9.05
2023-02-22T16:11:39.728Z,12.40
2023-02-22T16:14:23.904Z,10.73
2023-02-22T16:16:51.267Z,8.38
2023-02-22T16:19:37.783Z,13.05
2023-02-22T16:22:13.150Z,10.10
2023-02-22T16:24:40.224Z,10.93
2023-02-22T16:27:18.452Z,14.38
2023-02-22T16:30:24.729Z,12.45
2023-02-22T16:32:54.114Z,12.02
2023-02-22T16:35:21.351Z,9.77
2023-02-22T16:37:55.034Z,10.73
2023-02-22T16:40:34.971Z,10.00
2023-02-22T16:43:07.776Z,15.38
2023-02-22T16:45:35.866Z,12.30
2023-02-22T16:48:11.538Z,14.70
2023-02-22T16:50:38.186Z,10.05
2023-02-22T16:53:04.891Z,12.90
2023-02-22T16:55:31.554Z,13.27
2023-02-22T16:58:00.939Z,10.57
2023-02-22T17:00:31.432Z,15.35
2023-02-22T17:02:59.738Z,14.75
2023-02-22T17:05:26.576Z,13.57
2023-02-22T17:07:53.296Z,11.80
2023-02-22T17:10:20.256Z,16.42
2023-02-22T17:12:49.122Z,13.63
2023-02-22T17:15:44.853Z,15.73
2023-02-22T17:18:16.121Z,13.70
2023-02-22T17:20:44.904Z,16.70
2023-02-22T17:23:12.537Z,14.35
2023-02-22T17:25:48.522Z,16.85
2023-02-22T17:28:15.208Z,14.43
2023-02-22T17:30:43.913Z,16.65
2023-02-22T17:33:15.923Z,13.23
2023-02-22T17:35:43.034Z,19.13
2023-02-22T17:38:10.090Z,16.70
2023-02-22T17:40:39.038Z,17.70
2023-02-22T17:43:08.635Z,16.52
2023-02-22T17:45:38.594Z,15.07
2023-02-22T17:48:05.644Z,20.73
2023-02-22T17:50:32.538Z,16.92
2023-02-22T17:53:03.277Z,20.67
2023-02-22T17:55:30.474Z,21.13
2023-02-22T17:57:58.530Z,19.05
2023-02-22T18:00:33.056Z,21.20
2023-02-22T18:03:16.039Z,22.08
2023-02-22T18:05:46.229Z,19.58
2023-02-22T18:08:14.127Z,19.90
2023-02-22T18:10:44.721Z,19.50
2023-02-22T18:13:20.684Z,23.20
2023-02-22T18:15:47.497Z,20.10
2023-02-22T18:18:16.028Z,19.17
2023-02-22T18:20:46.566Z,20.75
2023-02-22T18:23:19.575Z,17.42
2023-02-22T18:26:07.608Z,17.33
2023-02-22T18:28:35.778Z,21.65
2023-02-22T18:31:07.781Z,21.83
2023-02-22T18:33:34.435Z,21.25
2023-02-22T18:36:01.094Z,20.83
2023-02-22T18:38:27.760Z,17.35
2023-02-22T18:41:06.895Z,20.23
2023-02-22T18:43:37.041Z,18.00
2023-02-22T18:46:24.459Z,26.25
2023-02-22T18:48:55.408Z,20.58
2023-02-22T18:51:23.496Z,18.83
2023-02-22T18:53:54.731Z,16.17
2023-02-22T18:56:21.747Z,16.58
2023-02-22T18:58:56.829Z,18.33
2023-02-22T19:01:23.585Z,14.60
2023-02-22T19:03:52.006Z,16.60
2023-02-22T19:06:21.737Z,18.63
2023-02-22T19:08:50.503Z,16.77
2023-02-22T19:11:23.356Z,21.65
2023-02-22T19:13:53.673Z,19.15
2023-02-22T19:16:22.709Z,20.77
2023-02-22T19:18:52.260Z,16.25
2023-02-22T19:21:19.852Z,18.45
2023-02-22T19:23:47.926Z,19.88
2023-02-22T19:26:20.739Z,16.98
2023-02-22T19:28:48.610Z,17.25
2023-02-22T19:31:26.072Z,20.33
2023-02-22T19:33:52.965Z,21.00
2023-02-22T19:36:22.878Z,21.15
2023-02-22T19:38:49.682Z,19.67
2023-02-22T19:41:21.954Z,18.38
2023-02-22T19:43:52.446Z,18.15
2023-02-22T19:46:24.712Z,17.08
2023-02-22T19:48:53.431Z,19.85
2023-02-22T19:51:24.381Z,26.50
2023-02-22T19:53:51.404Z,18.83
2023-02-22T19:56:20.607Z,19.15
2023-02-22T19:58:49.901Z,18.30
2023-02-22T20:01:29.122Z,19.98
2023-02-22T20:04:08.277Z,24.52
2023-02-22T20:06:40.827Z,21.50
2023-02-22T20:09:11.251Z,17.17
2023-02-22T20:11:38.377Z,18.45
2023-02-22T20:14:06.292Z,18.67
2023-02-22T20:16:34.664Z,17.20
2023-02-22T20:19:01.848Z,21.73
2023-02-22T20:21:33.365Z,24.00
2023-02-22T20:24:06.703Z,20.35
2023-02-22T20:26:36.032Z,22.88
2023-02-22T20:29:04.173Z,22.35
2023-02-22T20:31:31.839Z,19.17
2023-02-22T20:34:00.452Z,24.85
2023-02-22T20:36:29.452Z,21.42
2023-02-22T20:38:59.780Z,21.95
2023-02-22T20:41:29.090Z,23.23
2023-02-22T20:43:56.797Z,23.27
2023-02-22T20:46:25.205Z,25.52
2023-02-22T20:48:59.380Z,32.40
2023-02-22T20:51:27.622Z,27.75
2023-02-22T20:53:56.774Z,24.38
2023-02-22T20:56:24.456Z,32.60
2023-02-22T20:58:51.676Z,28.33
2023-02-22T21:01:20.644Z,26.90
2023-02-22T21:03:48.064Z,28.92
2023-02-22T21:06:16.636Z,28.17
2023-02-22T21:08:45.437Z,28.70
2023-02-22T21:11:14.326Z,26.00
2023-02-22T21:13:41.743Z,29.20
2023-02-22T21:16:17.207Z,29.55
2023-02-22T21:18:43.812Z,31.08
2023-02-22T21:21:12.041Z,29.35
2023-02-22T21:23:40.414Z,27.27
2023-02-22T21:26:12.886Z,30.02
2023-02-22T21:28:50.780Z,29.77
2023-02-22T21:31:23.953Z,29.58
2023-02-22T21:33:53.392Z,31.83
2023-02-22T21:36:24.804Z,29.88
2023-02-22T21:38:54.649Z,33.88
2023-02-22T21:41:24.119Z,26.45
2023-02-22T21:43:51.846Z,29.65
2023-02-22T21:46:18.851Z,33.42
2023-02-22T21:48:48.637Z,34.90
2023-02-22T21:51:21.494Z,31.50
2023-02-22T21:53:51.966Z,39.72
2023-02-22T21:56:22.985Z,35.22
2023-02-22T21:59:02.806Z,33.45
2023-02-22T22:01:32.450Z,30.25
2023-02-22T22:04:00.426Z,30.85
2023-02-22T22:06:29.301Z,31.92
2023-02-22T22:08:57.706Z,37.65
2023-02-22T22:11:25.105Z,30.10
2023-02-22T22:13:56.930Z,34.15
2023-02-22T22:16:25.929Z,34.75
2023-02-22T22:18:53.441Z,38.90
2023-02-22T22:21:23.416Z,34.72
2023-02-22T22:23:54.126Z,35.95
2023-02-22T22:26:22.022Z,37.78
2023-02-22T22:28:54.700Z,40.65
2023-02-22T22:31:23.720Z,41.22
2023-02-22T22:33:50.865Z,39.25
2023-02-22T22:36:21.103Z,38.35
2023-02-22T22:38:48.711Z,41.80
2023-02-22T22:41:18.662Z,39.85
2023-02-22T22:43:46.195Z,42.42
2023-02-22T22:46:16.296Z,38.00
2023-02-22T22:48:46.672Z,35.03
2023-02-22T22:51:16.197Z,39.95
2023-02-22T22:53:45.207Z,39.58
2023-02-22T22:56:20.833Z,40.22
2023-02-22T22:58:50.746Z,38.97
2023-02-22T23:01:20.015Z,41.80
2023-02-22T23:03:54.720Z,44.20
2023-02-22T23:06:30.783Z,40.83
2023-02-22T23:09:13.089Z,38.72
2023-02-22T23:11:46.131Z,44.72
2023-02-22T23:14:15.657Z,44.67
2023-02-22T23:16:42.962Z,42.78
2023-02-22T23:19:10.098Z,40.72
2023-02-22T23:21:37.578Z,43.30
2023-02-22T23:24:08.423Z,42.67
2023-02-22T23:26:35.614Z,43.55
2023-02-22T23:29:02.733Z,39.55
2023-02-22T23:31:29.901Z,41.22
2023-02-22T23:33:58.888Z,42.20
2023-02-22T23:36:26.561Z,44.67
2023-02-22T23:38:54.128Z,43.10
2023-02-22T23:41:24.825Z,46.13
2023-02-22T23:43:51.706Z,45.78
2023-02-22T23:46:18.931Z,47.33
2023-02-22T23:48:54.525Z,47.88
2023-02-22T23:51:26.159Z,51.75
2023-02-22T23:53:55.619Z,47.65
2023-02-22T23:56:27.817Z,51.38
2023-02-22T23:58:57.168Z,55.13
